PWSweather.com
Personal Weather Stations
Station Observations
IMAZOWIE6
WarszawaPL

WarszawaPL

Lat: 52.27957, Lon: 21.05489

Elevation: 100

Station Type: WS1080

http://stacjapogody.waw.pl/

High Low Average
Temperature 34.7°F1.5°C 30.2°F-1.0°C 33.1°F0.6°C
Dew Point -169.3°F-111.8°C -169.8°F-112.1°C -169.5°F-111.9°C
Winds 1.4 mph 2.3 kmh Calm Calm Calm NCalm N
Wind Gusts 3.4 mph5.5 kmh -- --
Humidity - - -
Pressure 30.04 in1017.3 mb 29.99 in1015.6 mb -
Precipitation 0.00 in0.0 mm - -
Hour Temp Dew Point Humidity Winds Wind Gusts Pressure Precip Precip Rate Daily Precip Total
12:01 AM 30.2°F-1.0°C -169.8°F-112.1°C - Calm Calm -- 30.01 in1016.3 mb 0.00 in0.0 mm 0.00 in0.0 mm 0.00 in0.0 mm
12:16 AM 30.4°F-0.9°C -169.8°F-112.1°C - Calm Calm 0.6 mph1.0 kmh 30.01 in1016.3 mb 0.00 in0.0 mm 0.00 in0.0 mm 0.00 in0.0 mm
12:31 AM 30.4°F-0.9°C -169.8°F-112.1°C - Calm Calm 0.6 mph1.0 kmh 30.01 in1016.3 mb 0.00 in0.0 mm 0.00 in0.0 mm 0.00 in0.0 mm
12:46 AM 30.6°F-0.8°C -169.7°F-112.1°C - Calm Calm -- 30.01 in1016.3 mb 0.00 in0.0 mm 0.00 in0.0 mm 0.00 in0.0 mm
01:01 AM 30.4°F-0.9°C -169.8°F-112.1°C - Calm Calm -- 30.01 in1016.3 mb 0.00 in0.0 mm 0.00 in0.0 mm 0.00 in0.0 mm
01:16 AM 30.7°F-0.7°C -169.7°F-112.1°C - Calm Calm -- 30.01 in1016.3 mb 0.00 in0.0 mm 0.00 in0.0 mm 0.00 in0.0 mm
01:31 AM 30.6°F-0.8°C -169.7°F-112.1°C - Calm Calm -- 30.00 in1015.9 mb 0.00 in0.0 mm 0.00 in0.0 mm 0.00 in0.0 mm
01:46 AM 30.7°F-0.7°C -169.7°F-112.1°C - Calm Calm -- 30.01 in1016.3 mb 0.00 in0.0 mm 0.00 in0.0 mm 0.00 in0.0 mm
02:01 AM 30.9°F-0.6°C -169.7°F-112.1°C - Calm Calm 0.6 mph1.0 kmh 30.00 in1015.9 mb 0.00 in0.0 mm 0.00 in0.0 mm 0.00 in0.0 mm
02:16 AM 30.9°F-0.6°C -169.7°F-112.1°C - 0.6 mph N1.0 kmh N 2.0 mph3.2 kmh 30.00 in1015.9 mb 0.00 in0.0 mm 0.00 in0.0 mm 0.00 in0.0 mm
02:31 AM 31.1°F-0.5°C -169.7°F-112.1°C - Calm Calm 0.6 mph1.0 kmh 30.00 in1015.9 mb 0.00 in0.0 mm 0.00 in0.0 mm 0.00 in0.0 mm
02:46 AM 31.1°F-0.5°C -169.7°F-112.1°C - Calm Calm -- 30.01 in1016.3 mb 0.00 in0.0 mm 0.00 in0.0 mm 0.00 in0.0 mm
03:01 AM 31.1°F-0.5°C -169.7°F-112.1°C - Calm Calm -- 30.01 in1016.3 mb 0.00 in0.0 mm 0.00 in0.0 mm 0.00 in0.0 mm
03:16 AM 31.5°F-0.3°C -169.7°F-112.1°C - Calm Calm -- 30.02 in1016.6 mb 0.00 in0.0 mm 0.00 in0.0 mm 0.00 in0.0 mm
03:31 AM 31.5°F-0.3°C -169.7°F-112.1°C - Calm Calm 1.4 mph2.3 kmh 30.02 in1016.6 mb 0.00 in0.0 mm 0.00 in0.0 mm 0.00 in0.0 mm
03:46 AM 31.6°F-0.2°C -169.6°F-112.0°C - Calm Calm 1.4 mph2.3 kmh 30.01 in1016.3 mb 0.00 in0.0 mm 0.00 in0.0 mm 0.00 in0.0 mm
04:01 AM 31.6°F-0.2°C -169.6°F-112.0°C - 0.6 mph N1.0 kmh N 2.0 mph3.2 kmh 30.00 in1015.9 mb 0.00 in0.0 mm 0.00 in0.0 mm 0.00 in0.0 mm
04:16 AM 31.6°F-0.2°C -169.6°F-112.0°C - Calm Calm 0.6 mph1.0 kmh 29.99 in1015.6 mb 0.00 in0.0 mm 0.00 in0.0 mm 0.00 in0.0 mm
04:31 AM 31.8°F-0.1°C -169.6°F-112.0°C - Calm Calm 1.4 mph2.3 kmh 30.01 in1016.3 mb 0.00 in0.0 mm 0.00 in0.0 mm 0.00 in0.0 mm
04:46 AM 31.8°F-0.1°C -169.6°F-112.0°C - 0.6 mph N1.0 kmh N 3.4 mph5.5 kmh 30.00 in1015.9 mb 0.00 in0.0 mm 0.00 in0.0 mm 0.00 in0.0 mm
05:01 AM 31.8°F-0.1°C -169.6°F-112.0°C - 0.6 mph N1.0 kmh N 2.0 mph3.2 kmh 29.99 in1015.6 mb 0.00 in0.0 mm 0.00 in0.0 mm 0.00 in0.0 mm
05:16 AM 31.8°F-0.1°C -169.6°F-112.0°C - Calm Calm 0.6 mph1.0 kmh 30.00 in1015.9 mb 0.00 in0.0 mm 0.00 in0.0 mm 0.00 in0.0 mm
05:31 AM 31.8°F-0.1°C -169.6°F-112.0°C - Calm Calm 0.6 mph1.0 kmh 30.00 in1015.9 mb 0.00 in0.0 mm 0.00 in0.0 mm 0.00 in0.0 mm
05:46 AM 32.0°F0.0°C -169.6°F-112.0°C - 0.6 mph N1.0 kmh N 1.4 mph2.3 kmh 29.99 in1015.6 mb 0.00 in0.0 mm 0.00 in0.0 mm 0.00 in0.0 mm
06:01 AM 31.6°F-0.2°C -169.6°F-112.0°C - Calm Calm 1.4 mph2.3 kmh 29.99 in1015.6 mb 0.00 in0.0 mm 0.00 in0.0 mm 0.00 in0.0 mm
06:16 AM 31.5°F-0.3°C -169.7°F-112.1°C - 1.4 mph N2.3 kmh N 3.4 mph5.5 kmh 30.00 in1015.9 mb 0.00 in0.0 mm 0.00 in0.0 mm 0.00 in0.0 mm
06:31 AM 31.6°F-0.2°C -169.6°F-112.0°C - 0.6 mph N1.0 kmh N 2.8 mph4.5 kmh 30.00 in1015.9 mb 0.00 in0.0 mm 0.00 in0.0 mm 0.00 in0.0 mm
06:46 AM 31.6°F-0.2°C -169.6°F-112.0°C - Calm Calm 0.6 mph1.0 kmh 30.00 in1015.9 mb 0.00 in0.0 mm 0.00 in0.0 mm 0.00 in0.0 mm
07:01 AM 31.6°F-0.2°C -169.6°F-112.0°C - Calm Calm 0.6 mph1.0 kmh 30.00 in1015.9 mb 0.00 in0.0 mm 0.00 in0.0 mm 0.00 in0.0 mm
07:16 AM 31.6°F-0.2°C -169.6°F-112.0°C - Calm Calm 0.6 mph1.0 kmh 30.00 in1015.9 mb 0.00 in0.0 mm 0.00 in0.0 mm 0.00 in0.0 mm
07:31 AM 31.8°F-0.1°C -169.6°F-112.0°C - Calm Calm 1.4 mph2.3 kmh 30.01 in1016.3 mb 0.00 in0.0 mm 0.00 in0.0 mm 0.00 in0.0 mm
07:46 AM 32.0°F0.0°C -169.6°F-112.0°C - Calm Calm -- 30.01 in1016.3 mb 0.00 in0.0 mm 0.00 in0.0 mm 0.00 in0.0 mm
08:01 AM 32.0°F0.0°C -169.6°F-112.0°C - Calm Calm 1.4 mph2.3 kmh 30.01 in1016.3 mb 0.00 in0.0 mm 0.00 in0.0 mm 0.00 in0.0 mm
08:16 AM 32.2°F0.1°C -169.6°F-112.0°C - Calm Calm -- 30.01 in1016.3 mb 0.00 in0.0 mm 0.00 in0.0 mm 0.00 in0.0 mm
08:31 AM 32.4°F0.2°C -169.6°F-112.0°C - Calm Calm -- 30.01 in1016.3 mb 0.00 in0.0 mm 0.00 in0.0 mm 0.00 in0.0 mm
08:46 AM 32.5°F0.3°C -169.5°F-111.9°C - Calm Calm 0.6 mph1.0 kmh 30.02 in1016.6 mb 0.00 in0.0 mm 0.00 in0.0 mm 0.00 in0.0 mm
09:01 AM 32.9°F0.5°C -169.5°F-111.9°C - Calm Calm 0.6 mph1.0 kmh 30.01 in1016.3 mb 0.00 in0.0 mm 0.00 in0.0 mm 0.00 in0.0 mm
09:16 AM 32.9°F0.5°C -169.5°F-111.9°C - Calm Calm 1.4 mph2.3 kmh 30.01 in1016.3 mb 0.00 in0.0 mm 0.00 in0.0 mm 0.00 in0.0 mm
09:31 AM 33.3°F0.7°C -169.5°F-111.9°C - Calm Calm 0.6 mph1.0 kmh 30.02 in1016.6 mb 0.00 in0.0 mm 0.00 in0.0 mm 0.00 in0.0 mm
09:46 AM 33.4°F0.8°C -169.5°F-111.9°C - Calm Calm 0.6 mph1.0 kmh 30.01 in1016.3 mb 0.00 in0.0 mm 0.00 in0.0 mm 0.00 in0.0 mm
10:01 AM 33.4°F0.8°C -169.5°F-111.9°C - Calm Calm 1.4 mph2.3 kmh 30.01 in1016.3 mb 0.00 in0.0 mm 0.00 in0.0 mm 0.00 in0.0 mm
10:16 AM 34.0°F1.1°C -169.4°F-111.9°C - Calm Calm 0.6 mph1.0 kmh 30.02 in1016.6 mb 0.00 in0.0 mm 0.00 in0.0 mm 0.00 in0.0 mm
10:31 AM 34.2°F1.2°C -169.4°F-111.9°C - Calm Calm -- 30.02 in1016.6 mb 0.00 in0.0 mm 0.00 in0.0 mm 0.00 in0.0 mm
10:46 AM 34.0°F1.1°C -169.4°F-111.9°C - Calm Calm 0.6 mph1.0 kmh 30.02 in1016.6 mb 0.00 in0.0 mm 0.00 in0.0 mm 0.00 in0.0 mm
11:01 AM 34.0°F1.1°C -169.4°F-111.9°C - Calm Calm -- 30.01 in1016.3 mb 0.00 in0.0 mm 0.00 in0.0 mm 0.00 in0.0 mm
11:16 AM 34.2°F1.2°C -169.4°F-111.9°C - Calm Calm 0.6 mph1.0 kmh 30.01 in1016.3 mb 0.00 in0.0 mm 0.00 in0.0 mm 0.00 in0.0 mm
11:31 AM 34.5°F1.4°C -169.3°F-111.8°C - Calm Calm -- 30.01 in1016.3 mb 0.00 in0.0 mm 0.00 in0.0 mm 0.00 in0.0 mm
11:46 AM 34.5°F1.4°C -169.3°F-111.8°C - Calm Calm 0.6 mph1.0 kmh 30.01 in1016.3 mb 0.00 in0.0 mm 0.00 in0.0 mm 0.00 in0.0 mm
12:01 PM 34.5°F1.4°C -169.3°F-111.8°C - Calm Calm -- 30.01 in1016.3 mb 0.00 in0.0 mm 0.00 in0.0 mm 0.00 in0.0 mm
12:16 PM 34.5°F1.4°C -169.3°F-111.8°C - Calm Calm -- 30.00 in1015.9 mb 0.00 in0.0 mm 0.00 in0.0 mm 0.00 in0.0 mm
12:31 PM 34.5°F1.4°C -169.3°F-111.8°C - Calm Calm 0.6 mph1.0 kmh 30.00 in1015.9 mb 0.00 in0.0 mm 0.00 in0.0 mm 0.00 in0.0 mm
12:46 PM 34.7°F1.5°C -169.3°F-111.8°C - Calm Calm 0.6 mph1.0 kmh 30.00 in1015.9 mb 0.00 in0.0 mm 0.00 in0.0 mm 0.00 in0.0 mm
01:01 PM 34.7°F1.5°C -169.3°F-111.8°C - Calm Calm -- 30.00 in1015.9 mb 0.00 in0.0 mm 0.00 in0.0 mm 0.00 in0.0 mm
01:16 PM 34.7°F1.5°C -169.3°F-111.8°C - Calm Calm -- 30.00 in1015.9 mb 0.00 in0.0 mm 0.00 in0.0 mm 0.00 in0.0 mm
01:31 PM 34.3°F1.3°C -169.4°F-111.9°C - Calm Calm -- 30.00 in1015.9 mb 0.00 in0.0 mm 0.00 in0.0 mm 0.00 in0.0 mm
01:46 PM 34.3°F1.3°C -169.4°F-111.9°C - Calm Calm 1.4 mph2.3 kmh 30.00 in1015.9 mb 0.00 in0.0 mm 0.00 in0.0 mm 0.00 in0.0 mm
02:01 PM 34.5°F1.4°C -169.3°F-111.8°C - Calm Calm -- 30.00 in1015.9 mb 0.00 in0.0 mm 0.00 in0.0 mm 0.00 in0.0 mm
02:16 PM 34.5°F1.4°C -169.3°F-111.8°C - Calm Calm 0.6 mph1.0 kmh 30.00 in1015.9 mb 0.01 in0.3 mm 0.05 in1.3 mm 0.01 in0.3 mm
02:31 PM 34.5°F1.4°C -169.3°F-111.8°C - Calm Calm -- 30.01 in1016.3 mb 0.01 in0.3 mm 0.00 in0.0 mm 0.01 in0.3 mm
02:46 PM 34.5°F1.4°C -169.3°F-111.8°C - Calm Calm 0.6 mph1.0 kmh 30.01 in1016.3 mb 0.01 in0.3 mm 0.00 in0.0 mm 0.01 in0.3 mm
03:01 PM 34.7°F1.5°C -169.3°F-111.8°C - Calm Calm -- 30.01 in1016.3 mb 0.01 in0.3 mm 0.00 in0.0 mm 0.01 in0.3 mm
03:16 PM 34.7°F1.5°C -169.3°F-111.8°C - Calm Calm 0.6 mph1.0 kmh 30.02 in1016.6 mb 0.00 in0.0 mm 0.00 in0.0 mm 0.01 in0.3 mm
03:31 PM 34.5°F1.4°C -169.3°F-111.8°C - Calm Calm -- 30.02 in1016.6 mb 0.00 in0.0 mm 0.00 in0.0 mm 0.01 in0.3 mm
03:46 PM 34.5°F1.4°C -169.3°F-111.8°C - Calm Calm -- 30.02 in1016.6 mb 0.00 in0.0 mm 0.00 in0.0 mm 0.01 in0.3 mm
04:01 PM 34.3°F1.3°C -169.4°F-111.9°C - Calm Calm -- 30.02 in1016.6 mb 0.00 in0.0 mm 0.00 in0.0 mm 0.01 in0.3 mm
04:16 PM 34.2°F1.2°C -169.4°F-111.9°C - Calm Calm -- 30.02 in1016.6 mb 0.00 in0.0 mm 0.00 in0.0 mm 0.01 in0.3 mm
04:31 PM 34.3°F1.3°C -169.4°F-111.9°C - Calm Calm -- 30.02 in1016.6 mb 0.00 in0.0 mm 0.00 in0.0 mm 0.01 in0.3 mm
04:46 PM 34.3°F1.3°C -169.4°F-111.9°C - Calm Calm -- 30.02 in1016.6 mb 0.00 in0.0 mm 0.00 in0.0 mm 0.01 in0.3 mm
05:01 PM 34.3°F1.3°C -169.4°F-111.9°C - Calm Calm -- 30.03 in1016.9 mb 0.00 in0.0 mm 0.00 in0.0 mm 0.01 in0.3 mm
05:16 PM 34.3°F1.3°C -169.4°F-111.9°C - Calm Calm -- 30.03 in1016.9 mb 0.00 in0.0 mm 0.00 in0.0 mm 0.01 in0.3 mm
05:31 PM 34.3°F1.3°C -169.4°F-111.9°C - Calm Calm -- 30.04 in1017.3 mb 0.00 in0.0 mm 0.00 in0.0 mm 0.01 in0.3 mm
05:46 PM 34.2°F1.2°C -169.4°F-111.9°C - Calm Calm -- 30.04 in1017.3 mb 0.00 in0.0 mm 0.00 in0.0 mm 0.01 in0.3 mm
06:01 PM 34.3°F1.3°C -169.4°F-111.9°C - Calm Calm -- 30.03 in1016.9 mb 0.00 in0.0 mm 0.00 in0.0 mm 0.01 in0.3 mm
06:16 PM 34.2°F1.2°C -169.4°F-111.9°C - Calm Calm -- 30.04 in1017.3 mb 0.00 in0.0 mm 0.00 in0.0 mm 0.01 in0.3 mm
06:31 PM 34.3°F1.3°C -169.4°F-111.9°C - Calm Calm -- 30.03 in1016.9 mb 0.00 in0.0 mm 0.00 in0.0 mm 0.01 in0.3 mm
06:46 PM 34.2°F1.2°C -169.4°F-111.9°C - Calm Calm -- 30.03 in1016.9 mb 0.00 in0.0 mm 0.00 in0.0 mm 0.01 in0.3 mm
07:01 PM 34.2°F1.2°C -169.4°F-111.9°C - Calm Calm -- 30.03 in1016.9 mb 0.00 in0.0 mm 0.00 in0.0 mm 0.01 in0.3 mm
07:16 PM 34.2°F1.2°C -169.4°F-111.9°C - Calm Calm -- 30.03 in1016.9 mb 0.00 in0.0 mm 0.00 in0.0 mm 0.01 in0.3 mm
07:31 PM 34.0°F1.1°C -169.4°F-111.9°C - Calm Calm -- 30.04 in1017.3 mb 0.00 in0.0 mm 0.00 in0.0 mm 0.01 in0.3 mm
07:46 PM 34.2°F1.2°C -169.4°F-111.9°C - Calm Calm -- 30.04 in1017.3 mb 0.00 in0.0 mm 0.00 in0.0 mm 0.01 in0.3 mm
08:01 PM 34.2°F1.2°C -169.4°F-111.9°C - Calm Calm -- 30.04 in1017.3 mb 0.00 in0.0 mm 0.00 in0.0 mm 0.01 in0.3 mm
08:16 PM 34.0°F1.1°C -169.4°F-111.9°C - Calm Calm -- 30.04 in1017.3 mb 0.00 in0.0 mm 0.00 in0.0 mm 0.01 in0.3 mm
08:31 PM 34.2°F1.2°C -169.4°F-111.9°C - Calm Calm -- 30.04 in1017.3 mb 0.00 in0.0 mm 0.00 in0.0 mm 0.01 in0.3 mm
08:46 PM 34.0°F1.1°C -169.4°F-111.9°C - Calm Calm -- 30.04 in1017.3 mb 0.00 in0.0 mm 0.00 in0.0 mm 0.01 in0.3 mm
09:01 PM 33.8°F1.0°C -169.4°F-111.9°C - Calm Calm -- 30.04 in1017.3 mb 0.00 in0.0 mm 0.00 in0.0 mm 0.01 in0.3 mm
09:16 PM 34.0°F1.1°C -169.4°F-111.9°C - Calm Calm -- 30.04 in1017.3 mb 0.00 in0.0 mm 0.00 in0.0 mm 0.01 in0.3 mm
09:31 PM 34.0°F1.1°C -169.4°F-111.9°C - Calm Calm -- 30.04 in1017.3 mb 0.00 in0.0 mm 0.00 in0.0 mm 0.01 in0.3 mm
09:46 PM 34.0°F1.1°C -169.4°F-111.9°C - Calm Calm -- 30.04 in1017.3 mb 0.00 in0.0 mm 0.00 in0.0 mm 0.01 in0.3 mm
10:01 PM 33.8°F1.0°C -169.4°F-111.9°C - Calm Calm -- 30.04 in1017.3 mb 0.00 in0.0 mm 0.00 in0.0 mm 0.01 in0.3 mm
10:16 PM 33.6°F0.9°C -169.4°F-111.9°C - Calm Calm -- 30.04 in1017.3 mb 0.00 in0.0 mm 0.00 in0.0 mm 0.01 in0.3 mm
10:31 PM 33.8°F1.0°C -169.4°F-111.9°C - Calm Calm -- 30.04 in1017.3 mb 0.00 in0.0 mm 0.00 in0.0 mm 0.01 in0.3 mm
10:46 PM 33.6°F0.9°C -169.4°F-111.9°C - Calm Calm -- 30.04 in1017.3 mb 0.00 in0.0 mm 0.00 in0.0 mm 0.01 in0.3 mm
11:00 PM 33.6°F0.9°C -169.4°F-111.9°C - Calm Calm -- 30.04 in1017.3 mb 0.00 in0.0 mm 0.00 in0.0 mm 0.01 in0.3 mm
11:16 PM 33.8°F1.0°C -169.4°F-111.9°C - Calm Calm -- 30.04 in1017.3 mb 0.00 in0.0 mm 0.00 in0.0 mm 0.01 in0.3 mm
11:31 PM 33.6°F0.9°C -169.4°F-111.9°C - Calm Calm -- 30.04 in1017.3 mb 0.00 in0.0 mm 0.00 in0.0 mm 0.01 in0.3 mm
11:46 PM 33.4°F0.8°C -169.5°F-111.9°C - Calm Calm -- 30.04 in1017.3 mb 0.00 in0.0 mm 0.00 in0.0 mm 0.01 in0.3 mm